sensor_id;sensor_type;location;lat;lon;timestamp;P1;durP1;ratioP1;P2;durP2;ratioP2
75608;SDS011;64194;51.044;13.780;2023-03-23T00:03:55;5.10;;;1.92;;
75608;SDS011;64194;51.044;13.780;2023-03-23T00:07:57;3.28;;;1.45;;
75608;SDS011;64194;51.044;13.780;2023-03-23T00:11:59;3.97;;;1.40;;
75608;SDS011;64194;51.044;13.780;2023-03-23T00:16:05;4.95;;;1.60;;
75608;SDS011;64194;51.044;13.780;2023-03-23T00:20:06;3.65;;;1.60;;
75608;SDS011;64194;51.044;13.780;2023-03-23T00:24:09;5.70;;;1.80;;
75608;SDS011;64194;51.044;13.780;2023-03-23T00:28:16;5.30;;;1.70;;
75608;SDS011;64194;51.044;13.780;2023-03-23T00:32:20;4.63;;;1.80;;
75608;SDS011;64194;51.044;13.780;2023-03-23T00:36:28;4.25;;;1.40;;
75608;SDS011;64194;51.044;13.780;2023-03-23T00:40:29;3.75;;;1.20;;
75608;SDS011;64194;51.044;13.780;2023-03-23T00:44:35;3.38;;;1.48;;
75608;SDS011;64194;51.044;13.780;2023-03-23T00:48:36;4.28;;;1.50;;
75608;SDS011;64194;51.044;13.780;2023-03-23T00:52:44;4.53;;;1.40;;
75608;SDS011;64194;51.044;13.780;2023-03-23T00:56:45;5.45;;;1.50;;
75608;SDS011;64194;51.044;13.780;2023-03-23T01:00:46;4.10;;;1.38;;
75608;SDS011;64194;51.044;13.780;2023-03-23T01:04:47;3.45;;;1.20;;
75608;SDS011;64194;51.044;13.780;2023-03-23T01:08:52;3.38;;;1.10;;
75608;SDS011;64194;51.044;13.780;2023-03-23T01:12:54;4.88;;;1.15;;
75608;SDS011;64194;51.044;13.780;2023-03-23T01:16:56;4.60;;;1.33;;
75608;SDS011;64194;51.044;13.780;2023-03-23T01:20:57;2.22;;;1.02;;
75608;SDS011;64194;51.044;13.780;2023-03-23T01:24:57;3.10;;;1.08;;
75608;SDS011;64194;51.044;13.780;2023-03-23T01:28:58;3.45;;;1.00;;
75608;SDS011;64194;51.044;13.780;2023-03-23T01:33:00;4.60;;;1.23;;
75608;SDS011;64194;51.044;13.780;2023-03-23T01:37:01;3.53;;;1.00;;
75608;SDS011;64194;51.044;13.780;2023-03-23T01:41:02;2.30;;;0.95;;
75608;SDS011;64194;51.044;13.780;2023-03-23T01:49:23;2.90;;;0.93;;
75608;SDS011;64194;51.044;13.780;2023-03-23T01:53:29;3.15;;;0.90;;
75608;SDS011;64194;51.044;13.780;2023-03-23T01:57:34;2.55;;;0.98;;
75608;SDS011;64194;51.044;13.780;2023-03-23T02:01:36;4.05;;;1.00;;
75608;SDS011;64194;51.044;13.780;2023-03-23T02:05:43;4.40;;;1.00;;
75608;SDS011;64194;51.044;13.780;2023-03-23T02:09:50;2.20;;;0.60;;
75608;SDS011;64194;51.044;13.780;2023-03-23T02:13:51;3.50;;;0.82;;
75608;SDS011;64194;51.044;13.780;2023-03-23T02:26:33;2.35;;;0.80;;
75608;SDS011;64194;51.044;13.780;2023-03-23T02:35:18;2.47;;;0.88;;
75608;SDS011;64194;51.044;13.780;2023-03-23T02:39:36;2.78;;;0.80;;
75608;SDS011;64194;51.044;13.780;2023-03-23T02:43:43;2.50;;;0.90;;
75608;SDS011;64194;51.044;13.780;2023-03-23T02:47:46;3.38;;;0.98;;
75608;SDS011;64194;51.044;13.780;2023-03-23T02:51:49;2.50;;;0.85;;
75608;SDS011;64194;51.044;13.780;2023-03-23T02:55:52;2.45;;;0.63;;
75608;SDS011;64194;51.044;13.780;2023-03-23T02:59:56;2.83;;;0.80;;
75608;SDS011;64194;51.044;13.780;2023-03-23T03:03:58;2.75;;;0.77;;
75608;SDS011;64194;51.044;13.780;2023-03-23T03:12:34;2.80;;;0.90;;
75608;SDS011;64194;51.044;13.780;2023-03-23T03:16:49;2.15;;;0.90;;
75608;SDS011;64194;51.044;13.780;2023-03-23T03:20:54;2.38;;;0.70;;
75608;SDS011;64194;51.044;13.780;2023-03-23T03:25:02;2.45;;;0.90;;
75608;SDS011;64194;51.044;13.780;2023-03-23T03:29:04;2.95;;;0.95;;
75608;SDS011;64194;51.044;13.780;2023-03-23T03:33:11;2.78;;;0.85;;
75608;SDS011;64194;51.044;13.780;2023-03-23T03:37:13;4.65;;;1.00;;
75608;SDS011;64194;51.044;13.780;2023-03-23T03:41:16;2.53;;;1.00;;
75608;SDS011;64194;51.044;13.780;2023-03-23T03:45:20;3.13;;;1.10;;
75608;SDS011;64194;51.044;13.780;2023-03-23T03:49:20;2.80;;;0.90;;
75608;SDS011;64194;51.044;13.780;2023-03-23T03:53:23;3.30;;;0.90;;
75608;SDS011;64194;51.044;13.780;2023-03-23T03:57:23;3.38;;;1.23;;
75608;SDS011;64194;51.044;13.780;2023-03-23T04:01:39;3.95;;;1.23;;
75608;SDS011;64194;51.044;13.780;2023-03-23T04:05:39;3.85;;;1.20;;
75608;SDS011;64194;51.044;13.780;2023-03-23T04:09:45;2.85;;;1.00;;
75608;SDS011;64194;51.044;13.780;2023-03-23T04:13:47;3.33;;;1.08;;
75608;SDS011;64194;51.044;13.780;2023-03-23T04:17:53;3.47;;;1.20;;
75608;SDS011;64194;51.044;13.780;2023-03-23T04:21:54;3.13;;;1.60;;
75608;SDS011;64194;51.044;13.780;2023-03-23T04:25:56;4.20;;;1.55;;
75608;SDS011;64194;51.044;13.780;2023-03-23T04:30:03;3.90;;;1.50;;
75608;SDS011;64194;51.044;13.780;2023-03-23T04:34:31;4.97;;;1.30;;
75608;SDS011;64194;51.044;13.780;2023-03-23T04:38:33;3.92;;;1.50;;
75608;SDS011;64194;51.044;13.780;2023-03-23T04:42:42;3.40;;;1.20;;
75608;SDS011;64194;51.044;13.780;2023-03-23T04:47:05;4.03;;;1.40;;
75608;SDS011;64194;51.044;13.780;2023-03-23T04:51:14;4.55;;;1.40;;
75608;SDS011;64194;51.044;13.780;2023-03-23T04:55:17;3.95;;;1.48;;
75608;SDS011;64194;51.044;13.780;2023-03-23T04:59:27;3.47;;;1.30;;
75608;SDS011;64194;51.044;13.780;2023-03-23T05:03:53;5.80;;;1.50;;
75608;SDS011;64194;51.044;13.780;2023-03-23T05:07:55;4.57;;;1.73;;
75608;SDS011;64194;51.044;13.780;2023-03-23T05:12:03;4.57;;;1.42;;
75608;SDS011;64194;51.044;13.780;2023-03-23T05:16:05;5.20;;;1.48;;
75608;SDS011;64194;51.044;13.780;2023-03-23T05:20:10;4.30;;;1.70;;
75608;SDS011;64194;51.044;13.780;2023-03-23T05:24:16;4.38;;;1.88;;
75608;SDS011;64194;51.044;13.780;2023-03-23T05:28:18;3.75;;;1.50;;
75608;SDS011;64194;51.044;13.780;2023-03-23T05:32:38;3.95;;;1.50;;
75608;SDS011;64194;51.044;13.780;2023-03-23T05:36:55;5.22;;;1.63;;
75608;SDS011;64194;51.044;13.780;2023-03-23T05:41:10;5.03;;;1.73;;
75608;SDS011;64194;51.044;13.780;2023-03-23T05:45:14;3.83;;;1.40;;
75608;SDS011;64194;51.044;13.780;2023-03-23T05:49:18;4.68;;;1.50;;
75608;SDS011;64194;51.044;13.780;2023-03-23T05:53:20;3.88;;;1.48;;
75608;SDS011;64194;51.044;13.780;2023-03-23T05:57:21;4.22;;;1.35;;
75608;SDS011;64194;51.044;13.780;2023-03-23T06:01:30;3.80;;;1.48;;
75608;SDS011;64194;51.044;13.780;2023-03-23T06:05:32;4.22;;;1.45;;
75608;SDS011;64194;51.044;13.780;2023-03-23T06:09:33;2.95;;;1.30;;
75608;SDS011;64194;51.044;13.780;2023-03-23T06:14:03;6.50;;;1.45;;
75608;SDS011;64194;51.044;13.780;2023-03-23T06:18:04;4.05;;;1.65;;
75608;SDS011;64194;51.044;13.780;2023-03-23T06:22:15;3.55;;;1.40;;
75608;SDS011;64194;51.044;13.780;2023-03-23T06:26:32;4.28;;;1.30;;
75608;SDS011;64194;51.044;13.780;2023-03-23T06:30:40;4.22;;;1.50;;
75608;SDS011;64194;51.044;13.780;2023-03-23T06:34:41;3.47;;;1.25;;
75608;SDS011;64194;51.044;13.780;2023-03-23T06:39:06;2.92;;;1.20;;
75608;SDS011;64194;51.044;13.780;2023-03-23T06:43:20;3.67;;;1.20;;
75608;SDS011;64194;51.044;13.780;2023-03-23T06:47:28;4.25;;;1.10;;
75608;SDS011;64194;51.044;13.780;2023-03-23T06:51:33;2.53;;;0.80;;
75608;SDS011;64194;51.044;13.780;2023-03-23T06:55:33;3.92;;;1.15;;
75608;SDS011;64194;51.044;13.780;2023-03-23T06:59:37;2.80;;;0.80;;
75608;SDS011;64194;51.044;13.780;2023-03-23T07:03:39;3.08;;;1.00;;
75608;SDS011;64194;51.044;13.780;2023-03-23T07:07:43;2.35;;;1.10;;
75608;SDS011;64194;51.044;13.780;2023-03-23T07:12:05;2.50;;;0.90;;
75608;SDS011;64194;51.044;13.780;2023-03-23T07:16:12;2.83;;;0.90;;
75608;SDS011;64194;51.044;13.780;2023-03-23T07:20:14;2.83;;;1.05;;
75608;SDS011;64194;51.044;13.780;2023-03-23T07:24:15;2.92;;;1.25;;
75608;SDS011;64194;51.044;13.780;2023-03-23T07:28:31;2.72;;;1.00;;
75608;SDS011;64194;51.044;13.780;2023-03-23T07:32:39;3.67;;;1.30;;
75608;SDS011;64194;51.044;13.780;2023-03-23T07:36:41;3.83;;;1.35;;
75608;SDS011;64194;51.044;13.780;2023-03-23T07:40:43;3.35;;;1.20;;
75608;SDS011;64194;51.044;13.780;2023-03-23T07:44:57;3.55;;;1.52;;
75608;SDS011;64194;51.044;13.780;2023-03-23T07:48:58;2.97;;;0.93;;
75608;SDS011;64194;51.044;13.780;2023-03-23T07:53:11;3.58;;;1.33;;
75608;SDS011;64194;51.044;13.780;2023-03-23T07:57:14;3.45;;;1.48;;
75608;SDS011;64194;51.044;13.780;2023-03-23T08:01:35;4.97;;;1.08;;
75608;SDS011;64194;51.044;13.780;2023-03-23T08:06:01;4.07;;;1.10;;
75608;SDS011;64194;51.044;13.780;2023-03-23T08:10:22;4.22;;;1.35;;
75608;SDS011;64194;51.044;13.780;2023-03-23T08:15:04;4.22;;;1.05;;
75608;SDS011;64194;51.044;13.780;2023-03-23T08:19:31;3.20;;;0.95;;
75608;SDS011;64194;51.044;13.780;2023-03-23T08:23:56;2.65;;;1.00;;
75608;SDS011;64194;51.044;13.780;2023-03-23T08:28:36;3.78;;;1.10;;
75608;SDS011;64194;51.044;13.780;2023-03-23T08:33:29;3.38;;;1.20;;
75608;SDS011;64194;51.044;13.780;2023-03-23T08:38:24;3.90;;;0.90;;
75608;SDS011;64194;51.044;13.780;2023-03-23T08:43:11;3.08;;;1.20;;
75608;SDS011;64194;51.044;13.780;2023-03-23T08:47:35;2.75;;;1.00;;
75608;SDS011;64194;51.044;13.780;2023-03-23T08:51:55;4.10;;;1.27;;
75608;SDS011;64194;51.044;13.780;2023-03-23T08:56:09;4.15;;;1.10;;
75608;SDS011;64194;51.044;13.780;2023-03-23T09:00:31;3.38;;;1.00;;
75608;SDS011;64194;51.044;13.780;2023-03-23T09:05:16;3.83;;;1.08;;
75608;SDS011;64194;51.044;13.780;2023-03-23T09:10:19;3.65;;;1.15;;
75608;SDS011;64194;51.044;13.780;2023-03-23T09:14:40;3.22;;;1.20;;
75608;SDS011;64194;51.044;13.780;2023-03-23T09:18:40;3.85;;;1.30;;
75608;SDS011;64194;51.044;13.780;2023-03-23T09:22:42;4.82;;;1.40;;
75608;SDS011;64194;51.044;13.780;2023-03-23T09:26:45;3.45;;;1.38;;
75608;SDS011;64194;51.044;13.780;2023-03-23T09:30:46;3.25;;;1.30;;
75608;SDS011;64194;51.044;13.780;2023-03-23T09:34:48;3.65;;;1.30;;
75608;SDS011;64194;51.044;13.780;2023-03-23T09:38:48;5.35;;;2.35;;
75608;SDS011;64194;51.044;13.780;2023-03-23T09:42:52;9.35;;;1.70;;
75608;SDS011;64194;51.044;13.780;2023-03-23T09:47:09;4.13;;;1.35;;
75608;SDS011;64194;51.044;13.780;2023-03-23T09:51:42;5.72;;;1.35;;
75608;SDS011;64194;51.044;13.780;2023-03-23T09:55:47;2.97;;;1.20;;
75608;SDS011;64194;51.044;13.780;2023-03-23T10:00:03;3.72;;;1.27;;
75608;SDS011;64194;51.044;13.780;2023-03-23T10:04:22;4.05;;;1.35;;
75608;SDS011;64194;51.044;13.780;2023-03-23T10:08:30;2.72;;;1.10;;
75608;SDS011;64194;51.044;13.780;2023-03-23T10:12:36;3.42;;;1.20;;
75608;SDS011;64194;51.044;13.780;2023-03-23T10:16:49;3.10;;;1.30;;
75608;SDS011;64194;51.044;13.780;2023-03-23T10:20:58;3.05;;;1.13;;
75608;SDS011;64194;51.044;13.780;2023-03-23T10:25:03;2.28;;;0.98;;
75608;SDS011;64194;51.044;13.780;2023-03-23T10:29:12;2.63;;;1.02;;
75608;SDS011;64194;51.044;13.780;2023-03-23T10:33:33;2.78;;;1.02;;
75608;SDS011;64194;51.044;13.780;2023-03-23T10:37:41;2.60;;;0.95;;
75608;SDS011;64194;51.044;13.780;2023-03-23T10:41:47;3.95;;;1.35;;
75608;SDS011;64194;51.044;13.780;2023-03-23T10:45:50;2.83;;;1.00;;
75608;SDS011;64194;51.044;13.780;2023-03-23T10:49:58;3.55;;;1.13;;
75608;SDS011;64194;51.044;13.780;2023-03-23T10:54:02;3.00;;;1.00;;
75608;SDS011;64194;51.044;13.780;2023-03-23T10:58:07;3.47;;;1.20;;
75608;SDS011;64194;51.044;13.780;2023-03-23T11:02:15;3.10;;;1.15;;
75608;SDS011;64194;51.044;13.780;2023-03-23T11:06:19;2.72;;;0.98;;
75608;SDS011;64194;51.044;13.780;2023-03-23T11:10:28;2.47;;;0.80;;
75608;SDS011;64194;51.044;13.780;2023-03-23T11:14:36;2.95;;;0.80;;
75608;SDS011;64194;51.044;13.780;2023-03-23T11:18:41;2.78;;;1.25;;
75608;SDS011;64194;51.044;13.780;2023-03-23T11:22:45;3.92;;;1.02;;
75608;SDS011;64194;51.044;13.780;2023-03-23T11:26:47;2.53;;;0.98;;
75608;SDS011;64194;51.044;13.780;2023-03-23T11:30:49;2.95;;;0.90;;
75608;SDS011;64194;51.044;13.780;2023-03-23T11:34:56;2.88;;;1.00;;
75608;SDS011;64194;51.044;13.780;2023-03-23T11:38:59;4.07;;;1.15;;
75608;SDS011;64194;51.044;13.780;2023-03-23T11:43:07;2.35;;;0.85;;
75608;SDS011;64194;51.044;13.780;2023-03-23T11:47:35;2.47;;;0.85;;
75608;SDS011;64194;51.044;13.780;2023-03-23T11:51:42;2.40;;;0.88;;
75608;SDS011;64194;51.044;13.780;2023-03-23T12:00:18;3.17;;;0.80;;
75608;SDS011;64194;51.044;13.780;2023-03-23T12:04:27;2.80;;;0.52;;
75608;SDS011;64194;51.044;13.780;2023-03-23T12:13:42;1.88;;;0.80;;
75608;SDS011;64194;51.044;13.780;2023-03-23T12:45:00;2.55;;;0.90;;
75608;SDS011;64194;51.044;13.780;2023-03-23T12:49:39;2.53;;;0.90;;
75608;SDS011;64194;51.044;13.780;2023-03-23T12:55:05;14.35;;;3.90;;
75608;SDS011;64194;51.044;13.780;2023-03-23T12:59:55;8.02;;;2.15;;
75608;SDS011;64194;51.044;13.780;2023-03-23T13:04:41;2.70;;;1.00;;
75608;SDS011;64194;51.044;13.780;2023-03-23T13:13:59;3.65;;;1.10;;
75608;SDS011;64194;51.044;13.780;2023-03-23T13:18:37;3.25;;;1.15;;
75608;SDS011;64194;51.044;13.780;2023-03-23T13:23:12;3.55;;;0.90;;
75608;SDS011;64194;51.044;13.780;2023-03-23T13:28:01;3.25;;;1.08;;
75608;SDS011;64194;51.044;13.780;2023-03-23T13:32:49;3.75;;;1.42;;
75608;SDS011;64194;51.044;13.780;2023-03-23T13:37:29;2.90;;;1.00;;
75608;SDS011;64194;51.044;13.780;2023-03-23T13:46:10;4.30;;;0.98;;
75608;SDS011;64194;51.044;13.780;2023-03-23T13:50:30;3.72;;;1.02;;
75608;SDS011;64194;51.044;13.780;2023-03-23T13:55:20;3.45;;;0.88;;
75608;SDS011;64194;51.044;13.780;2023-03-23T14:00:09;3.15;;;1.23;;
75608;SDS011;64194;51.044;13.780;2023-03-23T14:04:36;3.08;;;1.20;;
75608;SDS011;64194;51.044;13.780;2023-03-23T14:08:37;2.58;;;0.90;;
75608;SDS011;64194;51.044;13.780;2023-03-23T14:12:40;3.00;;;1.00;;
75608;SDS011;64194;51.044;13.780;2023-03-23T14:16:42;4.63;;;1.10;;
75608;SDS011;64194;51.044;13.780;2023-03-23T14:21:32;2.35;;;0.90;;
75608;SDS011;64194;51.044;13.780;2023-03-23T14:25:29;3.67;;;1.10;;
75608;SDS011;64194;51.044;13.780;2023-03-23T14:29:33;2.88;;;1.00;;
75608;SDS011;64194;51.044;13.780;2023-03-23T14:33:34;2.88;;;0.90;;
75608;SDS011;64194;51.044;13.780;2023-03-23T14:38:00;4.10;;;1.20;;
75608;SDS011;64194;51.044;13.780;2023-03-23T14:42:05;3.45;;;1.10;;
75608;SDS011;64194;51.044;13.780;2023-03-23T14:46:31;2.28;;;0.93;;
75608;SDS011;64194;51.044;13.780;2023-03-23T14:54:38;3.20;;;1.00;;
75608;SDS011;64194;51.044;13.780;2023-03-23T14:59:04;3.38;;;1.20;;
75608;SDS011;64194;51.044;13.780;2023-03-23T15:03:11;2.42;;;0.90;;
75608;SDS011;64194;51.044;13.780;2023-03-23T15:07:51;3.63;;;1.10;;
75608;SDS011;64194;51.044;13.780;2023-03-23T15:12:51;2.88;;;1.02;;
75608;SDS011;64194;51.044;13.780;2023-03-23T15:17:19;4.05;;;1.10;;
75608;SDS011;64194;51.044;13.780;2023-03-23T15:21:48;3.45;;;1.02;;
75608;SDS011;64194;51.044;13.780;2023-03-23T15:26:42;4.03;;;1.20;;
75608;SDS011;64194;51.044;13.780;2023-03-23T15:31:41;4.53;;;1.10;;
75608;SDS011;64194;51.044;13.780;2023-03-23T15:36:22;2.65;;;0.82;;
75608;SDS011;64194;51.044;13.780;2023-03-23T15:40:23;1.80;;;0.75;;
75608;SDS011;64194;51.044;13.780;2023-03-23T15:49:10;4.07;;;1.10;;
75608;SDS011;64194;51.044;13.780;2023-03-23T15:53:32;2.60;;;0.70;;
75608;SDS011;64194;51.044;13.780;2023-03-23T15:58:12;1.90;;;0.82;;
75608;SDS011;64194;51.044;13.780;2023-03-23T16:02:34;1.80;;;0.73;;
75608;SDS011;64194;51.044;13.780;2023-03-23T16:07:16;1.92;;;0.90;;
75608;SDS011;64194;51.044;13.780;2023-03-23T16:11:38;3.20;;;0.80;;
75608;SDS011;64194;51.044;13.780;2023-03-23T16:15:40;2.67;;;0.73;;
75608;SDS011;64194;51.044;13.780;2023-03-23T16:19:42;2.83;;;0.60;;
75608;SDS011;64194;51.044;13.780;2023-03-23T16:23:44;2.20;;;0.70;;
75608;SDS011;64194;51.044;13.780;2023-03-23T16:27:47;3.13;;;1.00;;
75608;SDS011;64194;51.044;13.780;2023-03-23T16:32:15;1.95;;;0.60;;
75608;SDS011;64194;51.044;13.780;2023-03-23T16:36:16;2.33;;;0.77;;
75608;SDS011;64194;51.044;13.780;2023-03-23T16:40:18;1.85;;;0.60;;
75608;SDS011;64194;51.044;13.780;2023-03-23T16:44:39;1.65;;;0.73;;
75608;SDS011;64194;51.044;13.780;2023-03-23T16:48:41;2.47;;;0.80;;
75608;SDS011;64194;51.044;13.780;2023-03-23T16:52:45;2.63;;;0.80;;
75608;SDS011;64194;51.044;13.780;2023-03-23T16:57:05;1.85;;;0.60;;
75608;SDS011;64194;51.044;13.780;2023-03-23T17:01:07;1.75;;;0.70;;
75608;SDS011;64194;51.044;13.780;2023-03-23T17:05:10;1.48;;;0.60;;
75608;SDS011;64194;51.044;13.780;2023-03-23T17:09:12;1.73;;;0.70;;
75608;SDS011;64194;51.044;13.780;2023-03-23T17:13:13;3.35;;;0.90;;
75608;SDS011;64194;51.044;13.780;2023-03-23T17:17:15;2.85;;;0.80;;
75608;SDS011;64194;51.044;13.780;2023-03-23T17:21:17;2.38;;;0.63;;
75608;SDS011;64194;51.044;13.780;2023-03-23T17:25:20;2.08;;;0.90;;
75608;SDS011;64194;51.044;13.780;2023-03-23T17:29:22;1.92;;;0.80;;
75608;SDS011;64194;51.044;13.780;2023-03-23T17:33:23;2.72;;;0.90;;
75608;SDS011;64194;51.044;13.780;2023-03-23T17:37:25;3.35;;;0.95;;
75608;SDS011;64194;51.044;13.780;2023-03-23T17:41:27;1.40;;;0.52;;
75608;SDS011;64194;51.044;13.780;2023-03-23T17:45:29;1.90;;;0.90;;
75608;SDS011;64194;51.044;13.780;2023-03-23T17:49:30;4.20;;;0.90;;
75608;SDS011;64194;51.044;13.780;2023-03-23T17:53:33;3.75;;;1.00;;
75608;SDS011;64194;51.044;13.780;2023-03-23T17:57:38;4.03;;;0.90;;
75608;SDS011;64194;51.044;13.780;2023-03-23T18:01:40;2.30;;;0.65;;
75608;SDS011;64194;51.044;13.780;2023-03-23T18:05:41;3.28;;;1.20;;
75608;SDS011;64194;51.044;13.780;2023-03-23T18:09:43;3.15;;;1.27;;
75608;SDS011;64194;51.044;13.780;2023-03-23T18:13:46;3.33;;;0.93;;
75608;SDS011;64194;51.044;13.780;2023-03-23T18:17:48;3.10;;;1.10;;
75608;SDS011;64194;51.044;13.780;2023-03-23T18:21:51;3.42;;;1.20;;
75608;SDS011;64194;51.044;13.780;2023-03-23T18:25:53;2.83;;;0.90;;
75608;SDS011;64194;51.044;13.780;2023-03-23T18:29:55;3.15;;;1.10;;
75608;SDS011;64194;51.044;13.780;2023-03-23T18:33:57;5.05;;;1.15;;
75608;SDS011;64194;51.044;13.780;2023-03-23T18:37:58;4.03;;;1.58;;
75608;SDS011;64194;51.044;13.780;2023-03-23T18:42:00;3.85;;;1.60;;
75608;SDS011;64194;51.044;13.780;2023-03-23T18:46:02;3.72;;;1.52;;
75608;SDS011;64194;51.044;13.780;2023-03-23T18:50:05;3.83;;;1.58;;
75608;SDS011;64194;51.044;13.780;2023-03-23T18:54:08;4.32;;;1.60;;
75608;SDS011;64194;51.044;13.780;2023-03-23T18:58:10;3.75;;;1.33;;
75608;SDS011;64194;51.044;13.780;2023-03-23T19:02:13;6.93;;;1.70;;
75608;SDS011;64194;51.044;13.780;2023-03-23T19:06:23;3.58;;;1.60;;
75608;SDS011;64194;51.044;13.780;2023-03-23T19:10:26;5.05;;;1.70;;
75608;SDS011;64194;51.044;13.780;2023-03-23T19:14:28;6.95;;;1.65;;
75608;SDS011;64194;51.044;13.780;2023-03-23T19:18:30;5.10;;;1.77;;
75608;SDS011;64194;51.044;13.780;2023-03-23T19:22:32;3.67;;;1.38;;
75608;SDS011;64194;51.044;13.780;2023-03-23T19:26:40;4.28;;;1.80;;
75608;SDS011;64194;51.044;13.780;2023-03-23T19:30:44;4.68;;;2.00;;
75608;SDS011;64194;51.044;13.780;2023-03-23T19:34:48;3.65;;;1.50;;
75608;SDS011;64194;51.044;13.780;2023-03-23T19:38:52;3.83;;;1.70;;
75608;SDS011;64194;51.044;13.780;2023-03-23T19:42:54;6.07;;;2.30;;
75608;SDS011;64194;51.044;13.780;2023-03-23T19:46:58;6.47;;;2.22;;
75608;SDS011;64194;51.044;13.780;2023-03-23T19:51:00;4.75;;;2.00;;
75608;SDS011;64194;51.044;13.780;2023-03-23T19:55:02;4.03;;;2.08;;
75608;SDS011;64194;51.044;13.780;2023-03-23T19:59:04;4.50;;;1.80;;
75608;SDS011;64194;51.044;13.780;2023-03-23T20:03:08;5.57;;;2.63;;
75608;SDS011;64194;51.044;13.780;2023-03-23T20:07:10;5.85;;;2.58;;
75608;SDS011;64194;51.044;13.780;2023-03-23T20:11:14;5.55;;;2.45;;
75608;SDS011;64194;51.044;13.780;2023-03-23T20:15:17;6.15;;;2.53;;
75608;SDS011;64194;51.044;13.780;2023-03-23T20:19:19;5.47;;;2.00;;
75608;SDS011;64194;51.044;13.780;2023-03-23T20:23:21;5.40;;;2.20;;
75608;SDS011;64194;51.044;13.780;2023-03-23T20:27:23;5.45;;;2.60;;
75608;SDS011;64194;51.044;13.780;2023-03-23T20:31:27;11.52;;;5.32;;
75608;SDS011;64194;51.044;13.780;2023-03-23T20:35:30;23.70;;;11.18;;
75608;SDS011;64194;51.044;13.780;2023-03-23T20:39:32;8.05;;;4.07;;
75608;SDS011;64194;51.044;13.780;2023-03-23T20:43:33;7.97;;;3.60;;
75608;SDS011;64194;51.044;13.780;2023-03-23T20:47:36;9.80;;;4.20;;
75608;SDS011;64194;51.044;13.780;2023-03-23T20:51:38;9.27;;;4.40;;
75608;SDS011;64194;51.044;13.780;2023-03-23T20:55:40;7.85;;;3.58;;
75608;SDS011;64194;51.044;13.780;2023-03-23T20:59:42;7.68;;;4.07;;
75608;SDS011;64194;51.044;13.780;2023-03-23T21:03:43;7.75;;;3.33;;
75608;SDS011;64194;51.044;13.780;2023-03-23T21:08:05;7.60;;;3.63;;
75608;SDS011;64194;51.044;13.780;2023-03-23T21:12:07;6.60;;;2.72;;
75608;SDS011;64194;51.044;13.780;2023-03-23T21:16:29;5.68;;;2.50;;
75608;SDS011;64194;51.044;13.780;2023-03-23T21:20:34;5.60;;;2.55;;
75608;SDS011;64194;51.044;13.780;2023-03-23T21:24:40;6.65;;;3.20;;
75608;SDS011;64194;51.044;13.780;2023-03-23T21:29:03;4.72;;;2.33;;
75608;SDS011;64194;51.044;13.780;2023-03-23T21:33:25;5.90;;;2.28;;
75608;SDS011;64194;51.044;13.780;2023-03-23T21:37:30;4.95;;;2.10;;
75608;SDS011;64194;51.044;13.780;2023-03-23T21:42:32;4.63;;;2.00;;
75608;SDS011;64194;51.044;13.780;2023-03-23T21:46:33;3.85;;;1.55;;
75608;SDS011;64194;51.044;13.780;2023-03-23T21:50:35;4.75;;;1.58;;
75608;SDS011;64194;51.044;13.780;2023-03-23T21:54:58;3.33;;;1.33;;
75608;SDS011;64194;51.044;13.780;2023-03-23T21:59:06;4.15;;;1.55;;
75608;SDS011;64194;51.044;13.780;2023-03-23T22:03:08;4.05;;;1.67;;
75608;SDS011;64194;51.044;13.780;2023-03-23T22:07:10;5.82;;;1.75;;
75608;SDS011;64194;51.044;13.780;2023-03-23T22:11:14;4.47;;;1.63;;
75608;SDS011;64194;51.044;13.780;2023-03-23T22:15:31;4.22;;;1.52;;
75608;SDS011;64194;51.044;13.780;2023-03-23T22:19:40;8.13;;;1.60;;
75608;SDS011;64194;51.044;13.780;2023-03-23T22:23:43;3.35;;;1.40;;
75608;SDS011;64194;51.044;13.780;2023-03-23T22:27:46;3.72;;;1.40;;
75608;SDS011;64194;51.044;13.780;2023-03-23T22:31:47;3.10;;;1.35;;
75608;SDS011;64194;51.044;13.780;2023-03-23T22:35:49;4.45;;;1.35;;
75608;SDS011;64194;51.044;13.780;2023-03-23T22:39:51;3.60;;;1.30;;
75608;SDS011;64194;51.044;13.780;2023-03-23T22:43:53;4.78;;;1.60;;
75608;SDS011;64194;51.044;13.780;2023-03-23T22:47:55;3.83;;;1.40;;
75608;SDS011;64194;51.044;13.780;2023-03-23T22:52:17;3.83;;;1.40;;
75608;SDS011;64194;51.044;13.780;2023-03-23T22:56:19;4.50;;;1.65;;
75608;SDS011;64194;51.044;13.780;2023-03-23T23:00:21;4.05;;;1.35;;
75608;SDS011;64194;51.044;13.780;2023-03-23T23:04:46;4.28;;;1.60;;
75608;SDS011;64194;51.044;13.780;2023-03-23T23:08:48;3.60;;;1.50;;
75608;SDS011;64194;51.044;13.780;2023-03-23T23:12:50;4.03;;;1.77;;
75608;SDS011;64194;51.044;13.780;2023-03-23T23:16:54;3.83;;;1.60;;
75608;SDS011;64194;51.044;13.780;2023-03-23T23:20:56;3.25;;;1.30;;
75608;SDS011;64194;51.044;13.780;2023-03-23T23:25:00;4.78;;;1.30;;
75608;SDS011;64194;51.044;13.780;2023-03-23T23:29:02;4.55;;;1.88;;
75608;SDS011;64194;51.044;13.780;2023-03-23T23:33:04;4.45;;;1.80;;
75608;SDS011;64194;51.044;13.780;2023-03-23T23:37:09;3.50;;;1.60;;
75608;SDS011;64194;51.044;13.780;2023-03-23T23:41:11;3.90;;;1.38;;
75608;SDS011;64194;51.044;13.780;2023-03-23T23:45:38;5.15;;;2.38;;
75608;SDS011;64194;51.044;13.780;2023-03-23T23:49:40;6.60;;;1.90;;
75608;SDS011;64194;51.044;13.780;2023-03-23T23:53:46;5.93;;;1.80;;
75608;SDS011;64194;51.044;13.780;2023-03-23T23:58:08;4.22;;;1.88;;
